Time;durP1;ratioP1;P1;durP2;ratioP2;P2;SDS_P1;SDS_P2;PMS_P1;PMS_P2;Temp;Humidity;BMP_temperature;BMP_pressure;BME280_temperature;BME280_humidity;BME280_pressure;Samples;Min_cycle;Max_cycle;Signal;HPM_P1;HPM_P2
2024/02/06 00:02:13;;;;;;;;;0.50;0.50;;;;;10.14;100.00;102085.72;5056822;28;46969;-80
2024/02/06 00:04:39;;;;;;;;;0.00;0.00;;;;;10.02;100.00;102077.09;5051466;28;45490;-80
2024/02/06 00:07:08;;;;;;;;;0.00;0.00;;;;;10.06;100.00;102078.81;5037487;28;58039;-80
2024/02/06 00:09:33;;;;;;;;;0.00;0.00;;;;;10.06;100.00;102078.81;5053540;28;45491;-80
2024/02/06 00:11:58;;;;;;;;;0.00;0.00;;;;;10.02;100.00;102081.44;5036938;28;45394;-80
2024/02/06 00:14:24;;;;;;;;;0.00;0.00;;;;;10.03;100.00;102072.78;5043483;28;45428;-80
2024/02/06 00:16:49;;;;;;;;;0.00;0.00;;;;;10.02;100.00;102076.25;5057128;28;60882;-80
2024/02/06 00:19:14;;;;;;;;;0.00;0.00;;;;;10.00;100.00;102068.44;5057660;28;54976;-80
2024/02/06 00:21:40;;;;;;;;;0.00;0.00;;;;;9.99;100.00;102066.72;5055716;28;74705;-81
2024/02/06 00:24:05;;;;;;;;;0.00;0.00;;;;;9.99;100.00;102060.63;5056143;28;59097;-80
2024/02/06 00:26:31;;;;;;;;;0.00;0.00;;;;;9.96;100.00;102061.53;5057942;28;45404;-79
2024/02/06 00:28:56;;;;;;;;;0.00;0.00;;;;;10.00;100.00;102072.78;5057099;28;45411;-80
2024/02/06 00:31:22;;;;;;;;;0.00;0.00;;;;;9.99;100.00;102071.03;5056675;28;68466;-80
2024/02/06 00:33:47;;;;;;;;;0.00;0.00;;;;;10.01;100.00;102054.56;5038575;28;45446;-80
2024/02/06 00:36:13;;;;;;;;;0.00;0.00;;;;;9.99;100.00;102055.44;5038186;28;45359;-79
2024/02/06 00:38:38;;;;;;;;;3.00;3.00;;;;;10.03;100.00;102058.03;5037136;28;65097;-79
2024/02/06 00:41:03;;;;;;;;;0.00;0.00;;;;;10.05;100.00;102048.47;5051199;28;69805;-80
2024/02/06 00:43:29;;;;;;;;;2.25;2.25;;;;;10.07;100.00;102043.25;5057807;28;45424;-79
2024/02/06 00:45:54;;;;;;;;;0.00;0.00;;;;;10.10;100.00;102042.38;5056440;28;45413;-80
2024/02/06 00:48:20;;;;;;;;;0.00;0.00;;;;;10.07;100.00;102038.06;5055678;28;45538;-80
2024/02/06 00:50:48;;;;;;;;;0.50;0.50;;;;;10.06;100.00;102028.50;5056825;28;69572;-80
2024/02/06 00:53:13;;;;;;;;;0.00;0.00;;;;;10.18;100.00;102031.06;5057697;28;45333;-80
2024/02/06 00:55:39;;;;;;;;;0.00;0.00;;;;;10.24;100.00;102041.41;5055617;28;45333;-81
2024/02/06 00:58:04;;;;;;;;;0.00;0.00;;;;;10.24;100.00;102025.78;5048338;28;45375;-80
2024/02/06 01:00:29;;;;;;;;;0.00;0.00;;;;;10.29;100.00;102033.59;5051743;28;62965;-81
2024/02/06 01:02:55;;;;;;;;;0.00;0.00;;;;;10.25;100.00;102030.13;5057469;28;45351;-80
2024/02/06 01:05:20;;;;;;;;;3.00;3.00;;;;;10.27;100.00;102023.19;5057112;28;57731;-80
2024/02/06 01:07:46;;;;;;;;;0.00;0.00;;;;;10.30;100.00;102034.44;5055240;28;45258;-80
2024/02/06 01:10:11;;;;;;;;;0.00;0.00;;;;;10.33;100.00;102035.31;5055755;28;46141;-80
2024/02/06 01:12:37;;;;;;;;;0.00;0.00;;;;;10.36;100.00;102031.81;5055713;28;45702;-80
2024/02/06 01:15:02;;;;;;;;;0.00;0.00;;;;;10.31;100.00;102031.88;5055846;28;59825;-81
2024/02/06 01:17:28;;;;;;;;;0.00;0.00;;;;;10.28;100.00;102022.28;5038800;28;45529;-80
2024/02/06 01:19:53;;;;;;;;;1.00;1.00;;;;;10.30;100.00;102024.88;5057171;28;46444;-81
2024/02/06 01:22:18;;;;;;;;;0.00;0.00;;;;;10.30;100.00;102021.44;5055176;28;70494;-81
2024/02/06 01:24:44;;;;;;;;;0.00;0.00;;;;;10.28;100.00;102021.44;5055168;28;67806;-81
2024/02/06 01:27:09;;;;;;;;;0.00;0.00;;;;;10.31;100.00;102023.16;5056243;28;63210;-80
2024/02/06 01:29:35;;;;;;;;;0.00;0.00;;;;;10.26;100.00;102021.44;5056755;28;46410;-80
2024/02/06 01:32:00;;;;;;;;;0.00;0.00;;;;;10.28;100.00;102017.09;5055868;28;45426;-81
2024/02/06 01:34:25;;;;;;;;;0.00;0.00;;;;;10.31;100.00;102010.16;5055956;28;45457;-80
2024/02/06 01:36:51;;;;;;;;;0.00;0.00;;;;;10.63;100.00;102004.72;5057083;28;45373;-80
2024/02/06 01:39:17;;;;;;;;;0.00;0.00;;;;;10.97;100.00;102001.78;5055026;28;65515;-80
2024/02/06 01:41:42;;;;;;;;;0.00;0.00;;;;;10.94;100.00;101999.19;5056542;28;45388;-80
2024/02/06 01:44:08;;;;;;;;;0.00;0.00;;;;;11.01;100.00;101993.94;5055073;28;45326;-81
2024/02/06 01:46:33;;;;;;;;;0.00;0.00;;;;;10.99;100.00;101986.97;5055891;28;47633;-81
2024/02/06 01:48:59;;;;;;;;;0.00;0.00;;;;;10.96;100.00;101994.84;5038673;28;65311;-80
2024/02/06 01:51:29;;;;;;;;;0.00;0.00;;;;;11.08;100.00;101994.69;5018696;28;45690;-80
2024/02/06 01:53:55;;;;;;;;;0.00;0.00;;;;;11.01;100.00;102000.84;5036919;28;45372;-80
2024/02/06 01:56:20;;;;;;;;;0.00;0.00;;;;;10.61;100.00;101993.44;5036671;28;45387;-80
2024/02/06 01:58:46;;;;;;;;;0.00;0.00;;;;;10.98;100.00;101999.16;5039171;28;47158;-80
2024/02/06 02:01:12;;;;;;;;;0.00;0.00;;;;;11.08;100.00;101996.44;5054245;28;65991;-80
2024/02/06 02:03:38;;;;;;;;;0.00;0.00;;;;;10.46;100.00;101999.66;5054445;28;45495;-80
2024/02/06 02:06:04;;;;;;;;;0.00;0.00;;;;;10.34;100.00;101989.31;5055815;28;64912;-80
2024/02/06 02:08:33;;;;;;;;;2.00;2.00;;;;;10.31;100.00;101987.63;5055057;28;46463;-80
2024/02/06 02:10:59;;;;;;;;;0.00;0.00;;;;;10.28;100.00;101992.81;5055284;28;45427;-80
2024/02/06 02:13:25;;;;;;;;;0.00;0.00;;;;;10.29;100.00;101981.53;5055177;28;45416;-80
2024/02/06 02:15:50;;;;;;;;;0.00;0.00;;;;;10.29;100.00;101986.75;5055324;28;45409;-80
2024/02/06 02:18:16;;;;;;;;;0.00;0.00;;;;;10.33;100.00;101985.00;5055605;28;62422;-80
2024/02/06 02:20:41;;;;;;;;;0.00;0.00;;;;;10.41;100.00;101980.59;5054387;28;62207;-80
2024/02/06 02:23:07;;;;;;;;;0.00;0.00;;;;;10.43;100.00;101978.84;5055871;28;45398;-80
2024/02/06 02:25:32;;;;;;;;;15.50;15.50;;;;;10.37;100.00;101971.94;5056412;28;45430;-80
2024/02/06 02:27:58;;;;;;;;;5.50;3.00;;;;;10.34;100.00;101973.72;5055149;28;71083;-81
2024/02/06 02:30:24;;;;;;;;;0.00;0.00;;;;;10.34;100.00;101958.09;5054921;28;45386;-80
2024/02/06 02:32:52;;;;;;;;;0.00;0.00;;;;;10.38;100.00;101967.59;5055339;28;45385;-81
2024/02/06 02:35:17;;;;;;;;;0.00;0.00;;;;;10.46;100.00;101965.81;5053839;28;45315;-81
2024/02/06 02:37:43;;;;;;;;;0.00;0.00;;;;;10.50;100.00;101961.44;5054712;28;46103;-80
2024/02/06 02:40:09;;;;;;;;;0.00;0.00;;;;;10.54;100.00;101965.75;5055228;28;69533;-80
2024/02/06 02:42:34;;;;;;;;;2.00;2.00;;;;;10.50;100.00;101957.09;5054201;28;45285;-80
2024/02/06 02:44:59;;;;;;;;;5.25;5.25;;;;;10.42;100.00;101957.16;5055049;28;45452;-80
2024/02/06 02:47:25;;;;;;;;;0.00;0.00;;;;;10.45;100.00;101953.66;5055331;28;67180;-80
2024/02/06 02:49:50;;;;;;;;;0.00;0.00;;;;;10.45;100.00;101953.66;5053612;28;71749;-80
2024/02/06 02:52:15;;;;;;;;;0.00;0.00;;;;;10.47;100.00;101951.91;5054005;28;55471;-80
2024/02/06 02:54:41;;;;;;;;;3.00;3.00;;;;;10.53;100.00;101946.66;5053776;28;64240;-80
2024/02/06 02:57:06;;;;;;;;;0.00;0.00;;;;;10.52;100.00;101947.53;5054402;28;72970;-80
2024/02/06 02:59:32;;;;;;;;;0.00;0.00;;;;;10.51;100.00;101935.41;5055681;28;45304;-80
2024/02/06 03:01:57;;;;;;;;;0.00;0.00;;;;;10.52;100.00;101931.03;5055958;28;45292;-80
2024/02/06 03:04:23;;;;;;;;;0.00;0.00;;;;;10.51;100.00;101921.50;5055387;28;62494;-80
2024/02/06 03:06:48;;;;;;;;;0.00;0.00;;;;;10.52;100.00;101926.69;5055622;28;46316;-80
2024/02/06 03:09:15;;;;;;;;;0.00;0.00;;;;;10.52;100.00;101921.50;5054694;28;45450;-80
2024/02/06 03:11:40;;;;;;;;;1.00;1.00;;;;;11.07;100.00;101922.63;5055342;28;45311;-80
2024/02/06 03:14:05;;;;;;;;;0.00;0.00;;;;;10.63;100.00;101919.63;5053890;28;61232;-80
2024/02/06 03:16:31;;;;;;;;;0.00;0.00;;;;;10.55;100.00;101908.44;5055165;28;51127;-80
2024/02/06 03:18:56;;;;;;;;;0.00;0.00;;;;;10.54;100.00;101914.53;5054996;28;60131;-80
2024/02/06 03:21:21;;;;;;;;;1.00;1.00;;;;;10.51;100.00;101898.06;5054388;28;45362;-81
2024/02/06 03:23:47;;;;;;;;;4.00;4.00;;;;;10.53;100.00;101894.59;5054703;28;65022;-80
2024/02/06 03:26:12;;;;;;;;;0.00;0.00;;;;;10.57;100.00;101898.03;5053326;28;61351;-81
2024/02/06 03:28:37;;;;;;;;;0.00;0.00;;;;;10.56;100.00;101898.88;5053438;28;62779;-80
2024/02/06 03:31:03;;;;;;;;;3.00;3.00;;;;;10.58;100.00;101918.81;5056136;28;64116;-81
2024/02/06 03:33:28;;;;;;;;;1.00;1.00;;;;;10.54;100.00;101901.50;5058717;28;45486;-80
2024/02/06 03:35:54;;;;;;;;;0.00;0.00;;;;;10.59;100.00;101912.75;5056864;28;73277;-80
2024/02/06 03:38:20;;;;;;;;;0.00;0.00;;;;;10.61;100.00;101890.16;5057760;28;45417;-80
2024/02/06 03:40:46;;;;;;;;;0.00;0.00;;;;;10.61;100.00;101895.34;5057596;28;45419;-80
2024/02/06 03:43:11;;;;;;;;;0.00;0.00;;;;;10.66;100.00;101897.94;5056466;28;45484;-80
2024/02/06 03:45:37;;;;;;;;;0.00;0.00;;;;;10.63;100.00;101884.94;5058169;28;60237;-80
2024/02/06 03:48:02;;;;;;;;;0.00;0.00;;;;;10.65;100.00;101888.38;5057542;28;45422;-80
2024/02/06 03:50:27;;;;;;;;;0.00;0.00;;;;;10.63;100.00;101880.56;5057268;28;45270;-80
2024/02/06 03:52:53;;;;;;;;;0.00;0.00;;;;;10.68;100.00;101879.66;5042437;28;65938;-80
2024/02/06 03:55:18;;;;;;;;;0.00;0.00;;;;;10.65;100.00;101871.00;5035999;28;72986;-80
2024/02/06 03:57:43;;;;;;;;;4.00;4.00;;;;;10.63;100.00;101867.56;5036277;28;65426;-80
2024/02/06 04:00:09;;;;;;;;;0.00;0.00;;;;;10.63;100.00;101861.50;5048474;28;50069;-80
2024/02/06 04:02:35;;;;;;;;;0.00;0.00;;;;;10.59;100.00;101873.69;5057062;28;45407;-80
2024/02/06 04:05:01;;;;;;;;;0.75;0.75;;;;;10.64;100.00;101865.81;5058450;28;47147;-80
2024/02/06 04:07:26;;;;;;;;;0.00;0.00;;;;;10.66;100.00;101877.09;5057278;28;45312;-81
2024/02/06 04:09:53;;;;;;;;;0.00;0.00;;;;;10.69;100.00;101860.56;5058421;28;45341;-79
2024/02/06 04:12:19;;;;;;;;;0.00;0.00;;;;;10.71;100.00;101867.47;5057405;28;45872;-80
2024/02/06 04:14:44;;;;;;;;;0.00;0.00;;;;;10.69;100.00;101864.03;5040403;28;47858;-81
2024/02/06 04:17:09;;;;;;;;;0.00;0.00;;;;;10.75;100.00;101865.69;5056194;28;65777;-80
2024/02/06 04:19:35;;;;;;;;;0.00;0.00;;;;;10.75;100.00;101871.75;5057253;28;45353;-80
2024/02/06 04:22:00;;;;;;;;;0.00;0.00;;;;;10.71;100.00;101854.44;5057330;28;65356;-81
2024/02/06 04:24:26;;;;;;;;;0.00;0.00;;;;;10.68;100.00;101861.44;5057644;28;47206;-80
2024/02/06 04:26:51;;;;;;;;;7.00;7.00;;;;;10.70;100.00;101860.56;5058106;28;45365;-80
2024/02/06 04:29:16;;;;;;;;;0.00;0.00;;;;;10.74;100.00;101867.44;5057859;28;57832;-80
2024/02/06 04:31:42;;;;;;;;;19.00;9.00;;;;;10.72;100.00;101857.94;5057463;28;57966;-80
2024/02/06 04:34:07;;;;;;;;;64.00;54.00;;;;;10.75;100.00;101856.13;5055567;28;75314;-80
2024/02/06 04:36:34;;;;;;;;;0.00;0.00;;;;;10.76;100.00;101849.19;5057864;28;45310;-79
2024/02/06 04:38:59;;;;;;;;;0.00;0.00;;;;;10.74;100.00;101840.53;5056763;28;45370;-80
2024/02/06 04:41:24;;;;;;;;;0.00;0.00;;;;;10.75;100.00;101848.31;5056760;28;45489;-80
2024/02/06 04:43:50;;;;;;;;;0.00;0.00;;;;;10.80;100.00;101845.66;5055806;28;71266;-80
2024/02/06 04:46:15;;;;;;;;;0.00;0.00;;;;;10.73;100.00;101846.63;5056963;28;73121;-80
2024/02/06 04:48:41;;;;;;;;;0.00;0.00;;;;;10.71;100.00;101844.03;5057813;28;45363;-80
2024/02/06 04:51:06;;;;;;;;;3.75;3.75;;;;;10.71;100.00;101843.19;5054329;28;45496;-80
2024/02/06 04:53:32;;;;;;;;;0.00;0.00;;;;;10.71;100.00;101846.63;5035925;28;47183;-80
2024/02/06 04:55:57;;;;;;;;;0.00;0.00;;;;;10.72;100.00;101839.72;5036178;28;45735;-80
2024/02/06 04:58:22;;;;;;;;;0.00;0.00;;;;;10.70;100.00;101825.81;5018951;28;64425;-80
2024/02/06 05:00:48;;;;;;;;;0.50;0.50;;;;;10.67;100.00;101831.94;5036638;28;67912;-80
2024/02/06 05:03:13;;;;;;;;;0.00;0.00;;;;;10.72;100.00;101829.28;5053496;28;45429;-80
2024/02/06 05:05:38;;;;;;;;;0.00;0.00;;;;;10.74;100.00;101841.41;5056685;28;69933;-80
2024/02/06 05:08:04;;;;;;;;;0.00;0.00;;;;;10.72;100.00;101835.34;5057373;28;45511;-80
2024/02/06 05:10:29;;;;;;;;;0.00;0.00;;;;;10.77;100.00;101824.88;5056356;28;45359;-79
2024/02/06 05:12:55;;;;;;;;;0.00;0.00;;;;;10.75;100.00;101818.81;5057543;28;46434;-80
2024/02/06 05:15:20;;;;;;;;;0.00;0.00;;;;;10.76;100.00;101815.34;5056250;28;45406;-80
2024/02/06 05:17:46;;;;;;;;;0.00;0.00;;;;;10.71;100.00;101806.72;5055449;28;69248;-80
2024/02/06 05:20:12;;;;;;;;;0.00;0.00;;;;;10.73;100.00;101813.63;5056068;28;45423;-80
2024/02/06 05:22:38;;;;;;;;;0.00;0.00;;;;;10.77;100.00;101806.63;5055326;28;47450;-80
2024/02/06 05:25:05;;;;;;;;;0.00;0.00;;;;;10.74;100.00;101812.75;5057412;28;45255;-81
2024/02/06 05:27:30;;;;;;;;;0.00;0.00;;;;;10.81;100.00;101823.97;5056178;28;45305;-81
2024/02/06 05:29:55;;;;;;;;;0.00;0.00;;;;;10.76;100.00;101815.34;5057194;28;45220;-80
2024/02/06 05:32:21;;;;;;;;;0.00;0.00;;;;;10.78;100.00;101824.84;5056573;28;66020;-81
2024/02/06 05:34:46;;;;;;;;;0.00;0.00;;;;;10.82;100.00;101816.13;5053771;28;68075;-81
2024/02/06 05:37:11;;;;;;;;;0.00;0.00;;;;;10.81;100.00;101809.19;5055703;28;64523;-80
2024/02/06 05:39:37;;;;;;;;;0.00;0.00;;;;;10.85;100.00;101799.59;5055791;28;45389;-80
2024/02/06 05:42:03;;;;;;;;;0.00;0.00;;;;;10.77;100.00;101804.03;5056115;28;65429;-81
2024/02/06 05:44:28;;;;;;;;;0.00;0.00;;;;;10.81;100.00;101800.53;5055757;28;45510;-81
2024/02/06 05:46:53;;;;;;;;;0.00;0.00;;;;;10.82;100.00;101795.28;5057055;28;45280;-81
2024/02/06 05:49:19;;;;;;;;;0.00;0.00;;;;;10.75;100.00;101785.81;5055100;28;62031;-81
2024/02/06 05:51:44;;;;;;;;;0.00;0.00;;;;;10.78;100.00;101785.78;5049120;28;48364;-80
2024/02/06 05:54:09;;;;;;;;;0.00;0.00;;;;;10.80;100.00;101799.66;5050680;28;45320;-81
2024/02/06 05:56:36;;;;;;;;;0.00;0.00;;;;;10.82;100.00;101781.41;5054764;28;62611;-80
2024/02/06 05:59:02;;;;;;;;;0.00;0.00;;;;;10.77;100.00;101781.47;5055679;28;45488;-80
2024/02/06 06:01:28;;;;;;;;;0.00;0.00;;;;;10.82;100.00;101789.22;5055510;28;46764;-81
2024/02/06 06:03:53;;;;;;;;;0.00;0.00;;;;;10.72;100.00;101798.03;5056868;28;45220;-81
2024/02/06 06:06:19;;;;;;;;;3.00;3.00;;;;;10.81;100.00;101785.75;5055372;28;45367;-80
2024/02/06 06:08:44;;;;;;;;;1.00;1.00;;;;;10.80;100.00;101791.84;5053562;28;66075;-80
2024/02/06 06:11:09;;;;;;;;;0.00;0.00;;;;;10.77;100.00;101791.00;5055232;28;45347;-81
2024/02/06 06:13:35;;;;;;;;;0.00;0.00;;;;;10.78;100.00;101793.59;5055373;28;47535;-80
2024/02/06 06:16:00;;;;;;;;;0.00;0.00;;;;;10.82;100.00;101784.00;5055027;28;53199;-81
2024/02/06 06:18:25;;;;;;;;;0.00;0.00;;;;;10.82;100.00;101790.06;5056829;28;45389;-81
2024/02/06 06:20:51;;;;;;;;;0.00;0.00;;;;;10.86;100.00;101790.88;5055234;28;72755;-81
2024/02/06 06:23:16;;;;;;;;;4.00;4.00;;;;;10.84;100.00;101793.50;5055470;28;66761;-81
2024/02/06 06:25:41;;;;;;;;;0.00;0.00;;;;;10.86;100.00;101772.66;5053929;28;46799;-81
2024/02/06 06:28:08;;;;;;;;;0.00;0.00;;;;;10.85;100.00;101783.97;5054564;28;63434;-81
2024/02/06 06:30:33;;;;;;;;;0.00;0.00;;;;;10.87;100.00;101796.97;5055043;28;46634;-81
2024/02/06 06:32:59;;;;;;;;;1.00;1.00;;;;;10.84;100.00;101792.66;5053556;28;45427;-80
2024/02/06 06:35:24;;;;;;;;;0.00;0.00;;;;;10.90;100.00;101787.38;5055294;28;45378;-80
2024/02/06 06:37:49;;;;;;;;;0.00;0.00;;;;;10.91;100.00;101780.44;5054244;28;65653;-78
2024/02/06 06:40:15;;;;;;;;;0.00;0.00;;;;;10.92;100.00;101787.34;5054788;28;45564;-78
2024/02/06 06:42:40;;;;;;;;;0.00;0.00;;;;;10.88;100.00;101783.91;5046669;28;45556;-76
2024/02/06 06:45:06;;;;;;;;;0.00;0.00;;;;;10.88;100.00;101775.25;5053489;28;55458;-78
2024/02/06 06:47:31;;;;;;;;;0.00;0.00;;;;;10.94;100.00;101785.56;5043143;28;45348;-78
2024/02/06 06:49:56;;;;;;;;;0.00;0.00;;;;;10.92;100.00;101788.22;5042499;28;68131;-78
2024/02/06 06:52:22;;;;;;;;;0.00;0.00;;;;;10.99;100.00;101791.59;5046508;28;45458;-78
2024/02/06 06:54:47;;;;;;;;;0.00;0.00;;;;;11.00;100.00;101785.50;5049264;28;55562;-79
2024/02/06 06:57:12;;;;;;;;;0.00;0.00;;;;;10.99;100.00;101786.38;5035161;28;60253;-79
2024/02/06 06:59:39;;;;;;;;;0.00;0.00;;;;;10.95;100.00;101780.34;5034901;28;60016;-79
2024/02/06 07:02:04;;;;;;;;;1.00;1.00;;;;;11.01;100.00;101785.50;5034651;28;45316;-79
2024/02/06 07:04:30;;;;;;;;;0.00;0.00;;;;;11.00;100.00;101793.31;5049217;28;45537;-78
2024/02/06 07:06:55;;;;;;;;;0.75;0.75;;;;;11.06;100.00;101784.56;5051192;28;45398;-79
2024/02/06 07:09:21;;;;;;;;;0.00;0.00;;;;;11.10;100.00;101784.47;5038297;28;70401;-80
2024/02/06 07:11:48;;;;;;;;;0.00;0.00;;;;;11.10;100.00;101792.28;5038156;28;45397;-78
2024/02/06 07:14:14;;;;;;;;;0.00;0.00;;;;;11.10;100.00;101801.88;5052760;28;45441;-78
2024/02/06 07:16:39;;;;;;;;;0.00;0.00;;;;;11.12;100.00;101800.09;5045905;28;45528;-77
2024/02/06 07:19:06;;;;;;;;;0.00;0.00;;;;;11.12;100.00;101806.16;5051436;28;46569;-77
2024/02/06 07:21:31;;;;;;;;;0.00;0.00;;;;;11.11;100.00;101812.28;5056457;28;45292;-78
2024/02/06 07:23:57;;;;;;;;;12.50;12.50;;;;;11.11;100.00;101809.66;5073353;28;45470;-78
2024/02/06 07:26:22;;;;;;;;;1.00;1.00;;;;;11.15;100.00;101815.69;5053951;28;67844;-79
2024/02/06 07:28:47;;;;;;;;;0.00;0.00;;;;;11.13;100.00;101812.25;5049659;28;76003;-80
2024/02/06 07:31:14;;;;;;;;;0.00;0.00;;;;;11.16;100.00;101820.91;5040001;28;68957;-79
2024/02/06 07:33:43;;;;;;;;;0.00;0.00;;;;;11.16;100.00;101823.50;5057941;28;45371;-76
2024/02/06 07:36:08;;;;;;;;;0.00;0.00;;;;;11.14;100.00;101822.63;5052931;28;45349;-77
2024/02/06 07:38:33;;;;;;;;;2.50;2.50;;;;;11.15;100.00;101826.13;5047763;28;45427;-77
2024/02/06 07:40:59;;;;;;;;;0.00;0.00;;;;;11.19;100.00;101833.84;5044901;28;64076;-77
2024/02/06 07:43:26;;;;;;;;;0.00;0.00;;;;;11.09;100.00;101816.66;5035827;28;45749;-77
2024/02/06 07:45:51;;;;;;;;;0.00;0.00;;;;;11.17;100.00;101826.97;5052763;28;45735;-77
2024/02/06 07:48:18;;;;;;;;;1.00;1.00;;;;;11.18;100.00;101829.56;5049828;28;48384;-77
2024/02/06 07:50:43;;;;;;;;;0.00;0.00;;;;;11.17;100.00;101835.63;5052109;28;48842;-77
2024/02/06 07:53:08;;;;;;;;;0.00;0.00;;;;;11.20;100.00;101835.59;5045037;28;57940;-75
2024/02/06 07:55:34;;;;;;;;;0.00;0.00;;;;;11.21;100.00;101831.25;5056415;28;65639;-76
2024/02/06 07:57:59;;;;;;;;;0.00;0.00;;;;;11.18;100.00;101837.38;5047312;28;48039;-76
2024/02/06 08:00:25;;;;;;;;;0.67;0.67;;;;;11.23;100.00;101838.13;5044476;28;72193;-77
2024/02/06 08:02:50;;;;;;;;;0.00;0.00;;;;;11.24;100.00;101829.44;5051490;28;67059;-77
2024/02/06 08:05:16;;;;;;;;;0.00;0.00;;;;;11.29;100.00;101834.63;5055708;28;45524;-76
2024/02/06 08:07:41;;;;;;;;;0.00;0.00;;;;;11.31;100.00;101834.56;5052132;28;46538;-75
2024/02/06 08:10:07;;;;;;;;;0.00;0.00;;;;;11.34;100.00;101831.94;5040766;28;66335;-76
2024/02/06 08:12:33;;;;;;;;;0.00;0.00;;;;;11.37;100.00;101832.75;5019415;28;45639;-75
2024/02/06 08:15:00;;;;;;;;;0.50;0.50;;;;;11.39;100.00;101827.50;5041613;28;45413;-75
2024/02/06 08:17:26;;;;;;;;;0.00;0.00;;;;;11.34;100.00;101832.78;5056572;28;46654;-77
2024/02/06 08:19:51;;;;;;;;;0.00;0.00;;;;;11.38;100.00;101834.44;5054728;28;62795;-76
2024/02/06 08:22:16;;;;;;;;;0.00;0.00;;;;;11.41;100.00;101833.56;5057019;28;45511;-76
2024/02/06 08:24:42;;;;;;;;;0.00;0.00;;;;;11.39;100.00;101846.63;5057135;28;65112;-76
2024/02/06 08:27:07;;;;;;;;;0.00;0.00;;;;;11.47;100.00;101825.63;5053682;28;73387;-75
2024/02/06 08:29:32;;;;;;;;;0.00;0.00;;;;;11.48;100.00;101822.16;5051672;28;45625;-76
2024/02/06 08:31:57;;;;;;;;;0.00;0.00;;;;;11.56;100.00;101827.25;5050185;28;60587;-75
2024/02/06 08:34:23;;;;;;;;;0.00;0.00;;;;;11.55;100.00;101833.34;5048853;28;65019;-76
2024/02/06 08:36:48;;;;;;;;;0.00;0.00;;;;;11.57;100.00;101826.34;5051461;28;47073;-76
2024/02/06 08:39:15;;;;;;;;;0.00;0.00;;;;;11.62;100.00;101825.41;5053261;28;55993;-75
2024/02/06 08:41:41;;;;;;;;;0.00;0.00;;;;;11.65;100.00;101823.66;5065788;28;45570;-77
2024/02/06 08:44:08;;;;;;;;;0.00;0.00;;;;;11.67;100.00;101821.88;5055470;28;45525;-75
2024/02/06 08:46:34;;;;;;;;;0.00;0.00;;;;;11.68;100.00;101831.41;5056960;28;47599;-76
2024/02/06 08:48:59;;;;;;;;;0.00;0.00;;;;;11.71;100.00;101832.22;5057076;28;45498;-76
2024/02/06 08:51:25;;;;;;;;;0.00;0.00;;;;;11.67;100.00;101825.34;5053542;28;45509;-75
2024/02/06 08:53:50;;;;;;;;;0.00;0.00;;;;;11.71;100.00;101823.53;5041920;28;64327;-75
2024/02/06 08:56:15;;;;;;;;;0.00;0.00;;;;;11.71;100.00;101829.59;5057165;28;46367;-75
2024/02/06 08:58:41;;;;;;;;;0.00;0.00;;;;;11.73;100.00;101830.44;5053776;28;45477;-75
2024/02/06 09:01:06;;;;;;;;;0.00;0.00;;;;;11.88;100.00;101841.53;5055422;28;45456;-76
2024/02/06 09:03:31;;;;;;;;;0.00;0.00;;;;;11.90;100.00;101824.97;5053640;28;45510;-76
2024/02/06 09:05:57;;;;;;;;;0.00;0.00;;;;;11.91;100.00;101828.47;5053942;28;70940;-76
2024/02/06 09:08:22;;;;;;;;;0.00;0.00;;;;;11.98;100.00;101830.94;5048191;28;49658;-76
2024/02/06 09:10:47;;;;;;;;;0.00;0.00;;;;;11.97;100.00;101836.19;5045906;28;70149;-77
2024/02/06 09:13:13;;;;;;;;;0.00;0.00;;;;;12.06;100.00;101822.97;5041910;28;65779;-76
2024/02/06 09:15:38;;;;;;;;;0.00;0.00;;;;;12.08;100.00;101820.34;5043821;28;69065;-76
2024/02/06 09:18:03;;;;;;;;;0.00;0.00;;;;;12.04;100.00;101816.91;5045089;28;45628;-75
2024/02/06 09:20:29;;;;;;;;;0.00;0.00;;;;;11.99;100.00;101827.44;5043374;28;45289;-76
2024/02/06 09:22:54;;;;;;;;;0.00;0.00;;;;;12.03;100.00;101823.00;5054859;28;69279;-76
2024/02/06 09:25:20;;;;;;;;;0.00;0.00;;;;;12.08;100.00;101831.63;5055225;28;46254;-76
2024/02/06 09:27:45;;;;;;;;;0.00;0.00;;;;;12.08;100.00;101815.97;5050833;28;69472;-75
2024/02/06 09:30:11;;;;;;;;;0.00;0.00;;;;;12.23;100.00;101825.28;5041707;28;64554;-75
2024/02/06 09:32:38;;;;;;;;;0.00;0.00;;;;;12.18;100.00;101811.44;5050786;28;45360;-76
2024/02/06 09:35:04;;;;;;;;;0.00;0.00;;;;;12.23;100.00;101808.75;5053902;28;46329;-76
2024/02/06 09:37:30;;;;;;;;;0.00;0.00;;;;;12.35;100.00;101809.38;5054737;28;45403;-75
2024/02/06 09:39:55;;;;;;;;;0.00;0.00;;;;;12.42;100.00;101801.44;5056224;28;45461;-76
2024/02/06 09:42:21;;;;;;;;;0.00;0.00;;;;;12.53;100.00;101808.16;5053673;28;45441;-75
2024/02/06 09:44:47;;;;;;;;;6.00;5.00;;;;;12.65;100.00;101812.28;5043292;28;46345;-76
2024/02/06 09:47:12;;;;;;;;;0.00;0.00;;;;;12.65;100.00;101814.91;5050958;28;63502;-76
2024/02/06 09:49:37;;;;;;;;;0.00;0.00;;;;;12.74;100.00;101805.97;5048854;28;45713;-77
2024/02/06 09:52:04;;;;;;;;;0.00;0.00;;;;;12.89;100.00;101804.81;5054622;28;68735;-76
2024/02/06 09:54:31;;;;;;;;;0.00;0.00;;;;;12.98;100.00;101802.88;5037089;28;68608;-76
2024/02/06 09:56:56;;;;;;;;;0.00;0.00;;;;;13.03;100.00;101807.97;5052550;28;45417;-77
2024/02/06 09:59:23;;;;;;;;;0.00;0.00;;;;;13.00;100.00;101799.34;5054638;28;45552;-76
2024/02/06 10:01:49;;;;;;;;;0.00;0.00;;;;;13.05;100.00;101800.13;5018225;28;45701;-76
2024/02/06 10:04:17;;;;;;;;;0.00;0.00;;;;;12.94;100.00;101801.19;5051819;28;75477;-75
2024/02/06 10:06:46;;;;;;;;;0.00;0.00;;;;;12.96;100.00;101796.81;5053840;28;45558;-76
2024/02/06 10:09:12;;;;;;;;;0.00;0.00;;;;;13.12;100.00;101792.09;5046861;28;45495;-76
2024/02/06 10:11:38;;;;;;;;;0.00;0.00;;;;;13.18;100.00;101791.94;5044971;28;45803;-76
2024/02/06 10:14:05;;;;;;;;;2.25;2.25;;;;;13.28;100.00;101784.75;5052026;28;71917;-75
2024/02/06 10:16:35;;;;;;;;;0.00;0.00;;;;;13.35;100.00;101791.59;5053957;28;45367;-76
2024/02/06 10:19:00;;;;;;;;;0.00;0.00;;;;;13.43;100.00;101780.97;5039824;28;45465;-75
2024/02/06 10:21:26;;;;;;;;;0.00;0.00;;;;;13.43;100.00;101782.69;5043510;28;45407;-76
2024/02/06 10:23:59;;;;;;;;;0.00;0.00;;;;;13.48;100.00;101779.09;5040111;28;47501;-76
2024/02/06 10:26:24;;;;;;;;;0.00;0.00;;;;;13.45;100.00;101778.31;5052420;28;45465;-76
2024/02/06 10:28:49;;;;;;;;;0.00;0.00;;;;;13.50;100.00;101760.72;5051269;28;69347;-76
2024/02/06 10:31:15;;;;;;;;;0.00;0.00;;;;;13.48;100.00;101772.97;5051777;28;55680;-75
2024/02/06 10:33:40;;;;;;;;;0.00;0.00;;;;;13.56;100.00;101776.28;5054640;28;45367;-76
2024/02/06 10:36:06;;;;;;;;;0.00;0.00;;;;;13.52;100.00;101767.66;5052564;28;45441;-76
2024/02/06 10:38:32;;;;;;;;;0.00;0.00;;;;;13.56;100.00;101773.66;5037792;28;45423;-76
2024/02/06 10:40:58;;;;;;;;;0.00;0.00;;;;;13.62;100.00;101783.13;5054725;28;45340;-76
2024/02/06 10:43:30;;;;;;;;;0.00;0.00;;;;;13.67;100.00;101776.00;5053744;28;46077;-76
2024/02/06 10:45:59;;;;;;;;;0.00;0.00;;;;;13.61;100.00;101771.78;5055456;28;45402;-76
2024/02/06 10:48:25;;;;;;;;;0.00;0.00;;;;;13.61;100.00;101766.53;5054215;28;45469;-76
2024/02/06 10:51:00;;;;;;;;;0.00;0.00;;;;;13.66;100.00;101766.44;5055346;28;45470;-76
2024/02/06 10:53:27;;;;;;;;;0.00;0.00;;;;;13.75;100.00;101755.75;5045600;28;46583;-76
2024/02/06 10:56:13;;;;;;;;;0.00;0.00;;;;;13.80;100.00;101759.09;5046701;28;45576;-76
2024/02/06 10:58:42;;;;;;;;;0.00;0.00;;;;;13.90;100.00;101759.72;5040279;28;45536;-76
2024/02/06 11:01:12;;;;;;;;;0.00;0.00;;;;;14.00;100.00;101761.16;5051994;28;45430;-76
2024/02/06 11:04:10;;;;;;;;;0.00;0.00;;;;;14.17;100.00;101770.34;5047706;28;46092;-76
2024/02/06 11:06:41;;;;;;;;;0.00;0.00;;;;;14.31;100.00;101799.63;5029438;28;45507;-75
2024/02/06 11:09:11;;;;;;;;;0.00;0.00;;;;;14.39;100.00;101800.25;5037036;28;45709;-80
2024/02/06 11:11:38;;;;;;;;;0.00;0.00;;;;;14.55;100.00;101789.38;5043652;28;45491;-79